Time;durP1;ratioP1;P1;durP2;ratioP2;P2;SDS_P1;SDS_P2;PMS_P1;PMS_P2;Temp;Humidity;BMP_temperature;BMP_pressure;BME280_temperature;BME280_humidity;BME280_pressure;Samples;Min_cycle;Max_cycle;Signal;HPM_P1;HPM_P2
2022/10/06 00:01:22;;;;;;;4.70;1.33;;;15.60;74.00;;;;;;9182934;19;20404;-62
2022/10/06 00:04:26;;;;;;;9.40;1.20;;;15.50;74.00;;;;;;9181846;19;20018;-61
2022/10/06 00:07:29;;;;;;;1.92;0.50;;;15.50;74.10;;;;;;9183614;19;20018;-64
2022/10/06 00:10:34;;;;;;;4.38;1.05;;;15.50;74.20;;;;;;9179086;19;20098;-63
2022/10/06 00:13:39;;;;;;;4.32;0.90;;;15.40;74.30;;;;;;9182404;19;20035;-61
2022/10/06 00:16:43;;;;;;;3.60;0.57;;;15.40;74.40;;;;;;9182802;19;20534;-62
2022/10/06 00:19:47;;;;;;;5.15;1.63;;;15.40;74.50;;;;;;9181004;19;20015;-63
2022/10/06 00:22:51;;;;;;;3.40;0.98;;;15.30;74.50;;;;;;9180529;19;20024;-61
2022/10/06 00:25:54;;;;;;;;;;;15.30;74.60;;;;;;9183361;19;20170;-62
2022/10/06 00:29:00;;;;;;;4.80;1.17;;;15.30;74.60;;;;;;9183531;19;19915;-62
2022/10/06 00:32:03;;;;;;;10.88;1.17;;;15.20;74.50;;;;;;9178490;19;20018;-62
2022/10/06 00:35:09;;;;;;;4.90;1.27;;;15.20;74.60;;;;;;9182050;19;20011;-62
2022/10/06 00:38:13;;;;;;;5.05;1.70;;;15.20;74.70;;;;;;9182167;19;20023;-61
2022/10/06 00:41:19;;;;;;;3.40;1.08;;;15.10;74.80;;;;;;9181424;19;20102;-61
2022/10/06 00:44:24;;;;;;;10.05;1.42;;;15.20;74.90;;;;;;9181798;19;20078;-62
2022/10/06 00:47:31;;;;;;;5.65;1.10;;;15.10;74.90;;;;;;9182132;19;20086;-64
2022/10/06 00:50:37;;;;;;;4.40;1.23;;;15.10;75.00;;;;;;9179911;19;20014;-63
2022/10/06 00:53:41;;;;;;;7.43;1.38;;;15.10;75.10;;;;;;9181837;19;20013;-61
2022/10/06 00:56:45;;;;;;;4.50;0.98;;;15.10;75.10;;;;;;9175350;19;20018;-61
2022/10/06 00:59:50;;;;;;;11.55;1.65;;;15.00;75.10;;;;;;9180953;19;20015;-61
2022/10/06 01:02:58;;;;;;;8.80;1.05;;;15.00;75.20;;;;;;9178055;19;20043;-63
2022/10/06 01:06:03;;;;;;;6.13;1.05;;;15.00;75.20;;;;;;9178455;19;20574;-63
2022/10/06 01:09:07;;;;;;;8.40;1.27;;;15.00;75.20;;;;;;9177759;19;20033;-64
2022/10/06 01:12:11;;;;;;;6.25;1.20;;;15.00;75.30;;;;;;9180751;19;20393;-62
2022/10/06 01:15:17;;;;;;;9.55;1.60;;;14.90;75.20;;;;;;9178802;19;20475;-63
2022/10/06 01:18:25;;;;;;;12.85;1.58;;;14.90;75.30;;;;;;9180745;19;20035;-61
2022/10/06 01:21:35;;;;;;;10.68;1.58;;;14.90;75.40;;;;;;9177937;19;20025;-64
2022/10/06 01:24:41;;;;;;;10.90;1.20;;;14.80;75.40;;;;;;9179006;19;20415;-61
2022/10/06 01:27:50;;;;;;;6.60;1.30;;;14.80;75.40;;;;;;9177185;19;20021;-61
2022/10/06 01:30:56;;;;;;;16.77;1.98;;;14.80;75.40;;;;;;9177997;19;20475;-61
2022/10/06 01:34:00;;;;;;;9.32;1.67;;;14.80;75.50;;;;;;9178994;19;20736;-63
2022/10/06 01:37:05;;;;;;;12.63;1.65;;;14.70;75.50;;;;;;9178062;19;20010;-61
2022/10/06 01:40:11;;;;;;;8.73;2.28;;;14.70;75.50;;;;;;9178965;19;20023;-64
2022/10/06 01:43:15;;;;;;;7.10;1.45;;;14.70;75.50;;;;;;9175549;19;20455;-62
2022/10/06 01:46:20;;;;;;;8.95;1.65;;;14.70;75.60;;;;;;9178304;19;20041;-61
2022/10/06 01:49:23;;;;;;;;;;;14.60;75.50;;;;;;9178853;19;20051;-62
2022/10/06 01:52:27;;;;;;;10.90;1.75;;;14.60;75.50;;;;;;9179471;19;19946;-60
2022/10/06 01:55:33;;;;;;;15.57;3.63;;;14.50;75.30;;;;;;9179267;19;20399;-61
2022/10/06 01:58:37;;;;;;;10.15;1.80;;;14.50;75.40;;;;;;9173411;19;20085;-62
2022/10/06 02:01:42;;;;;;;10.82;1.67;;;14.50;75.50;;;;;;9176548;19;20010;-60
2022/10/06 02:04:46;;;;;;;6.05;1.60;;;14.50;75.50;;;;;;9177493;19;20542;-60
2022/10/06 02:07:50;;;;;;;9.70;1.33;;;14.50;75.60;;;;;;9178031;19;20049;-64
2022/10/06 02:10:55;;;;;;;9.65;1.90;;;14.40;75.60;;;;;;9185541;19;20010;-62
2022/10/06 02:14:01;;;;;;;13.63;1.52;;;14.40;75.60;;;;;;9185306;19;20010;-61
2022/10/06 02:17:07;;;;;;;16.23;2.00;;;14.40;75.60;;;;;;9184919;19;20018;-60
2022/10/06 02:20:10;;;;;;;;;;;14.40;75.60;;;;;;9186502;19;20023;-61
2022/10/06 02:23:14;;;;;;;12.95;2.20;;;14.40;75.60;;;;;;9184016;19;20294;-62
2022/10/06 02:26:20;;;;;;;12.05;1.95;;;14.30;75.50;;;;;;9184393;19;20024;-61
2022/10/06 02:29:25;;;;;;;11.20;1.80;;;14.40;75.60;;;;;;9184536;19;20105;-63
2022/10/06 02:32:34;;;;;;;8.30;1.50;;;14.30;75.60;;;;;;9185059;19;20427;-60
2022/10/06 02:35:37;;;;;;;15.23;2.20;;;14.30;75.70;;;;;;9183942;19;20022;-62
2022/10/06 02:38:41;;;;;;;15.13;2.30;;;14.30;75.70;;;;;;9184207;19;20078;-62
2022/10/06 02:41:47;;;;;;;16.60;2.70;;;14.20;75.70;;;;;;9183921;19;20074;-61
2022/10/06 02:44:51;;;;;;;10.77;1.92;;;14.20;75.70;;;;;;9185843;19;20021;-62
2022/10/06 02:47:55;;;;;;;;;;;14.20;75.70;;;;;;9184354;19;20025;-60
2022/10/06 02:51:00;;;;;;;13.73;2.50;;;14.20;75.70;;;;;;9186344;19;19915;-60
2022/10/06 02:54:04;;;;;;;17.35;1.63;;;14.20;75.60;;;;;;9185866;19;20051;-61
2022/10/06 02:57:09;;;;;;;9.63;2.17;;;14.10;75.70;;;;;;9180013;19;20018;-61
2022/10/06 03:00:15;;;;;;;12.55;2.05;;;14.20;75.80;;;;;;9184042;19;20017;-62
2022/10/06 03:03:24;;;;;;;14.00;2.08;;;14.10;75.80;;;;;;9182644;19;20014;-62
2022/10/06 03:06:30;;;;;;;10.13;1.45;;;14.10;75.80;;;;;;9183278;19;20014;-61
2022/10/06 03:09:42;;;;;;;;;;;14.10;75.80;;;;;;9182767;19;20015;-60
2022/10/06 03:12:48;;;;;;;8.60;1.65;;;14.10;75.70;;;;;;9184981;19;19948;-60
2022/10/06 03:15:52;;;;;;;15.30;2.88;;;14.00;75.60;;;;;;9182974;19;20014;-60
2022/10/06 03:18:57;;;;;;;8.23;1.05;;;14.00;75.80;;;;;;9181153;19;20040;-62
2022/10/06 03:22:01;;;;;;;20.80;3.00;;;14.00;75.80;;;;;;9181895;19;20043;-60
2022/10/06 03:25:14;;;;;;;9.68;2.05;;;14.00;75.80;;;;;;9182892;19;20010;-61
2022/10/06 03:28:19;;;;;;;11.43;2.17;;;13.90;75.70;;;;;;9182470;19;20014;-64
2022/10/06 03:31:24;;;;;;;14.82;1.80;;;13.90;75.80;;;;;;9184595;19;20015;-60
2022/10/06 03:34:28;;;;;;;14.32;2.55;;;13.90;75.80;;;;;;9184576;19;20011;-63
2022/10/06 03:37:34;;;;;;;14.98;1.75;;;13.90;75.90;;;;;;9182232;19;20018;-61
2022/10/06 03:40:38;;;;;;;9.85;2.03;;;13.80;75.80;;;;;;9184020;19;20024;-62
2022/10/06 03:43:46;;;;;;;8.35;1.60;;;13.80;75.90;;;;;;9181815;19;20017;-63
2022/10/06 03:46:50;;;;;;;10.50;1.50;;;13.80;75.90;;;;;;9181905;19;20031;-62
2022/10/06 03:49:53;;;;;;;;;;;13.80;75.90;;;;;;9184619;19;20007;-60
2022/10/06 03:52:57;;;;;;;11.35;2.38;;;13.70;75.80;;;;;;9182276;19;20292;-62
2022/10/06 03:56:02;;;;;;;8.15;1.70;;;13.70;75.80;;;;;;9182527;19;20014;-60
2022/10/06 03:59:10;;;;;;;10.55;1.90;;;13.70;75.80;;;;;;9179116;19;20019;-62
2022/10/06 04:02:16;;;;;;;8.30;1.48;;;13.70;75.90;;;;;;9180761;19;20037;-61
2022/10/06 04:05:20;;;;;;;9.52;2.22;;;13.60;75.90;;;;;;9183358;19;20022;-63
2022/10/06 04:08:24;;;;;;;14.48;2.20;;;13.60;75.90;;;;;;9180752;19;20023;-60
2022/10/06 04:11:28;;;;;;;;;;;13.50;75.90;;;;;;9182192;19;20024;-60
2022/10/06 04:14:34;;;;;;;12.10;1.38;;;13.60;76.00;;;;;;9180347;19;20256;-63
2022/10/06 04:17:39;;;;;;;17.30;1.92;;;13.50;75.80;;;;;;9180225;19;20018;-60
2022/10/06 04:20:42;;;;;;;11.98;1.73;;;13.50;75.90;;;;;;9182183;19;20037;-62
2022/10/06 04:23:46;;;;;;;6.85;1.67;;;13.50;76.10;;;;;;9180578;19;20024;-59
2022/10/06 04:26:51;;;;;;;;;;;13.50;76.10;;;;;;9183294;19;20402;-63
2022/10/06 04:29:58;;;;;;;13.98;1.70;;;13.40;75.90;;;;;;9182624;19;19925;-60
2022/10/06 04:33:01;;;;;;;16.20;2.20;;;13.40;75.90;;;;;;9179377;19;20006;-61
2022/10/06 04:36:08;;;;;;;10.85;2.15;;;13.40;75.90;;;;;;9180841;19;20025;-61
2022/10/06 04:39:13;;;;;;;9.82;1.75;;;13.40;76.00;;;;;;9181500;19;20022;-61
2022/10/06 04:42:20;;;;;;;15.80;2.95;;;13.30;76.00;;;;;;9179881;19;20043;-61
2022/10/06 04:45:26;;;;;;;26.35;3.30;;;13.30;76.00;;;;;;9180335;19;20010;-61
2022/10/06 04:48:31;;;;;;;17.13;2.55;;;13.30;76.10;;;;;;9181236;19;20018;-60
2022/10/06 04:51:35;;;;;;;14.60;2.17;;;13.30;76.10;;;;;;9182447;19;20014;-62
2022/10/06 04:54:40;;;;;;;17.42;2.28;;;13.30;76.10;;;;;;9180400;19;20018;-61
2022/10/06 04:57:45;;;;;;;13.27;2.28;;;13.30;76.10;;;;;;9174355;19;20010;-60
2022/10/06 05:00:51;;;;;;;9.70;1.63;;;13.20;76.10;;;;;;9178973;19;20012;-63
2022/10/06 05:03:57;;;;;;;10.38;1.85;;;13.20;76.10;;;;;;9176520;19;20027;-62
2022/10/06 05:07:02;;;;;;;10.27;2.45;;;13.20;76.10;;;;;;9179561;19;20014;-63
2022/10/06 05:10:06;;;;;;;;;;;13.20;76.10;;;;;;9179131;19;20036;-63
2022/10/06 05:13:11;;;;;;;10.45;1.95;;;13.20;76.20;;;;;;9177142;19;20259;-59
2022/10/06 05:16:18;;;;;;;10.90;1.67;;;13.20;76.10;;;;;;9179179;19;20010;-62
2022/10/06 05:19:22;;;;;;;13.88;2.20;;;13.10;76.10;;;;;;9180420;19;20029;-61
2022/10/06 05:22:26;;;;;;;14.60;1.95;;;13.10;76.10;;;;;;9177631;19;20031;-61
2022/10/06 05:25:30;;;;;;;17.75;2.33;;;13.10;76.20;;;;;;9180486;19;20360;-61
2022/10/06 05:28:34;;;;;;;12.38;2.33;;;13.00;76.10;;;;;;9178778;19;20247;-63
2022/10/06 05:31:42;;;;;;;16.15;2.95;;;13.00;76.10;;;;;;9178412;19;20051;-60
2022/10/06 05:34:46;;;;;;;6.82;1.33;;;13.00;76.20;;;;;;9180121;19;20017;-64
2022/10/06 05:37:50;;;;;;;21.98;3.95;;;13.00;76.20;;;;;;9179803;19;20018;-61
2022/10/06 05:41:01;;;;;;;11.88;1.83;;;13.00;76.20;;;;;;9178477;19;20037;-62
2022/10/06 05:44:05;;;;;;;8.80;1.67;;;12.90;76.20;;;;;;9175445;19;20017;-60
2022/10/06 05:47:13;;;;;;;22.42;3.42;;;12.90;76.20;;;;;;9177447;19;20361;-60
2022/10/06 05:50:17;;;;;;;15.93;3.08;;;12.90;76.30;;;;;;9176995;19;20029;-61
2022/10/06 05:53:23;;;;;;;15.82;2.15;;;12.90;76.30;;;;;;9177604;19;20307;-62
2022/10/06 05:56:30;;;;;;;11.80;1.65;;;12.90;76.30;;;;;;9174429;19;20018;-61
2022/10/06 05:59:33;;;;;;;17.27;2.05;;;12.80;76.30;;;;;;9177779;19;20407;-61
2022/10/06 06:02:40;;;;;;;18.17;2.30;;;12.80;76.30;;;;;;9176532;19;20015;-63
2022/10/06 06:05:46;;;;;;;10.80;2.30;;;12.80;76.30;;;;;;9175767;19;20029;-61
2022/10/06 06:08:53;;;;;;;14.07;1.85;;;12.80;76.40;;;;;;9176226;19;20047;-61
2022/10/06 06:11:58;;;;;;;17.40;2.53;;;12.80;76.40;;;;;;9176381;19;20098;-61
2022/10/06 06:18:40;;;;;;;10.68;1.70;;;12.70;76.40;;;;;;9174454;19;20668;-62
2022/10/06 06:21:46;;;;;;;10.93;2.33;;;12.70;76.40;;;;;;9168339;19;20014;-62
2022/10/06 06:24:49;;;;;;;10.98;2.28;;;12.70;76.50;;;;;;9164983;19;20021;-63
2022/10/06 06:27:56;;;;;;;9.18;1.67;;;12.70;76.50;;;;;;9168385;19;20059;-64
2022/10/06 06:31:02;;;;;;;13.13;2.40;;;12.70;76.60;;;;;;9164738;19;20022;-63
2022/10/06 06:34:10;;;;;;;14.80;2.10;;;12.70;76.60;;;;;;9165864;19;20014;-62
2022/10/06 06:37:14;;;;;;;17.42;1.90;;;12.70;76.60;;;;;;9168546;19;20014;-63
2022/10/06 06:40:21;;;;;;;11.27;2.83;;;12.70;76.60;;;;;;9170299;19;20380;-61
2022/10/06 06:43:25;;;;;;;11.05;2.22;;;12.60;76.50;;;;;;9170228;19;20026;-62
2022/10/06 06:46:49;;;;;;;9.63;2.90;;;12.60;76.60;;;;;;9175362;19;20104;-63
2022/10/06 06:49:58;;;;;;;17.63;2.33;;;12.60;76.60;;;;;;9174559;19;20072;-62
2022/10/06 06:53:03;;;;;;;18.08;2.10;;;12.60;76.70;;;;;;9175355;19;20034;-63
2022/10/06 06:56:10;;;;;;;16.38;3.15;;;12.70;76.80;;;;;;9172509;19;20022;-61
2022/10/06 06:59:16;;;;;;;10.43;1.83;;;12.70;76.80;;;;;;9170255;19;20037;-61
2022/10/06 07:02:25;;;;;;;14.63;1.88;;;12.60;76.70;;;;;;9174459;19;20041;-61
2022/10/06 07:05:33;;;;;;;13.48;2.40;;;12.60;76.80;;;;;;9174636;19;20023;-61
2022/10/06 07:08:41;;;;;;;16.48;2.38;;;12.60;76.80;;;;;;9175417;19;20067;-60
2022/10/06 07:11:45;;;;;;;15.23;3.13;;;12.60;76.80;;;;;;9179718;19;20014;-60
2022/10/06 07:28:17;;;;;;;17.40;2.10;;;12.80;77.00;;;;;;9180354;19;20038;-60
2022/10/06 07:31:21;;;;;;;7.78;1.73;;;12.80;77.00;;;;;;9178478;19;20014;-62
2022/10/06 07:34:25;;;;;;;11.63;1.92;;;12.90;77.10;;;;;;9178552;19;20073;-61
2022/10/06 07:37:31;;;;;;;14.90;2.13;;;12.90;77.20;;;;;;9177677;19;20028;-60
2022/10/06 07:40:36;;;;;;;13.75;2.20;;;13.00;77.20;;;;;;9175007;19;20014;-61
2022/10/06 07:43:45;;;;;;;13.90;2.30;;;13.10;77.20;;;;;;9172715;19;20018;-65
2022/10/06 07:46:51;;;;;;;;;;;13.20;77.20;;;;;;9176760;19;20022;-63
2022/10/06 07:50:02;;;;;;;11.98;1.65;;;13.40;77.20;;;;;;9177779;19;20257;-62
2022/10/06 07:53:09;;;;;;;12.63;2.50;;;13.50;77.10;;;;;;9174682;19;20038;-63
2022/10/06 07:56:20;;;;;;;14.43;2.22;;;13.60;77.10;;;;;;9168347;19;20352;-67
2022/10/06 07:59:27;;;;;;;16.65;2.53;;;13.80;77.10;;;;;;9173185;19;20019;-61
2022/10/06 08:02:31;;;;;;;15.40;2.83;;;13.90;77.10;;;;;;9174415;19;20388;-64
2022/10/06 08:05:39;;;;;;;25.17;3.38;;;14.10;77.60;;;;;;9171284;19;20022;-62
2022/10/06 08:08:46;;;;;;;15.68;2.67;;;14.20;76.90;;;;;;9177759;19;20041;-62
2022/10/06 08:11:55;;;;;;;10.48;2.00;;;14.40;76.80;;;;;;9177527;19;20468;-61
2022/10/06 08:15:01;;;;;;;9.85;1.80;;;14.50;76.70;;;;;;9178328;19;20074;-63
2022/10/06 08:18:10;;;;;;;11.88;2.10;;;14.60;76.60;;;;;;9178287;19;20021;-62
2022/10/06 08:21:35;;;;;;;16.03;2.50;;;14.80;76.50;;;;;;9178505;19;20018;-63
2022/10/06 08:24:40;;;;;;;7.45;2.13;;;14.90;76.30;;;;;;9173825;19;20015;-64
2022/10/06 08:28:04;;;;;;;16.27;2.00;;;15.00;76.20;;;;;;9178238;19;20868;-63
2022/10/06 08:31:10;;;;;;;14.20;3.30;;;15.20;76.10;;;;;;9173959;19;20030;-61
2022/10/06 08:34:14;;;;;;;14.13;1.80;;;15.30;76.00;;;;;;9176389;19;20015;-61
2022/10/06 08:37:22;;;;;;;13.55;2.22;;;15.50;76.00;;;;;;9179341;19;20100;-62
2022/10/06 08:40:29;;;;;;;13.32;2.50;;;15.50;75.80;;;;;;9175526;19;20026;-61
2022/10/06 08:43:35;;;;;;;13.77;2.08;;;15.70;75.60;;;;;;9174295;19;20446;-61
2022/10/06 08:46:45;;;;;;;19.17;1.55;;;15.80;75.50;;;;;;9181170;19;20022;-64
2022/10/06 08:49:51;;;;;;;25.30;3.22;;;15.90;75.40;;;;;;9179610;19;20090;-62
2022/10/06 08:53:06;;;;;;;10.88;2.28;;;16.00;75.20;;;;;;9172073;19;20022;-62
2022/10/06 08:56:18;;;;;;;14.60;2.33;;;16.20;75.10;;;;;;9176570;19;20011;-60
2022/10/06 08:59:22;;;;;;;11.80;1.67;;;16.30;75.10;;;;;;9178371;19;20018;-60
2022/10/06 09:02:29;;;;;;;8.73;1.90;;;16.40;75.10;;;;;;9177424;19;20039;-60
2022/10/06 09:05:34;;;;;;;18.50;2.35;;;16.50;74.90;;;;;;9174189;19;20025;-61
2022/10/06 09:08:48;;;;;;;15.55;2.03;;;16.70;74.80;;;;;;9170873;19;20018;-61
2022/10/06 09:12:01;;;;;;;12.73;2.70;;;16.80;74.60;;;;;;9180490;19;20015;-63
2022/10/06 09:15:20;;;;;;;19.50;2.63;;;16.90;74.40;;;;;;9175513;19;20019;-61
2022/10/06 09:18:30;;;;;;;13.63;2.00;;;17.00;74.20;;;;;;9178742;19;20808;-60
2022/10/06 09:21:54;;;;;;;8.10;1.65;;;17.20;74.20;;;;;;9165278;19;20018;-63
2022/10/06 09:25:02;;;;;;;18.27;2.05;;;17.30;74.00;;;;;;9157669;19;20055;-64
2022/10/06 09:28:14;;;;;;;9.63;2.10;;;17.40;73.80;;;;;;9171201;19;20424;-63
2022/10/06 09:31:22;;;;;;;11.48;2.08;;;17.50;73.50;;;;;;9169120;19;20029;-62
2022/10/06 09:34:33;;;;;;;12.02;1.77;;;17.60;73.40;;;;;;9170566;19;20021;-66
2022/10/06 09:37:55;;;;;;;23.48;2.20;;;17.60;73.20;;;;;;9174840;19;20037;-61
2022/10/06 09:40:59;;;;;;;13.75;1.92;;;17.70;72.90;;;;;;9176109;19;20089;-61
2022/10/06 09:44:07;;;;;;;12.13;2.17;;;17.70;73.00;;;;;;9175392;19;20043;-60
2022/10/06 09:47:35;;;;;;;13.60;1.70;;;17.80;72.90;;;;;;9178168;19;20112;-61
2022/10/06 09:50:39;;;;;;;8.48;1.88;;;17.90;72.60;;;;;;9171340;19;20925;-63
2022/10/06 09:53:44;;;;;;;15.38;1.80;;;18.00;72.80;;;;;;9172169;19;20026;-63
2022/10/06 09:56:48;;;;;;;12.00;1.60;;;18.00;72.60;;;;;;9169417;19;20452;-62
2022/10/06 09:59:58;;;;;;;11.50;1.75;;;18.10;72.50;;;;;;9172827;19;20043;-62
2022/10/06 10:03:05;;;;;;;13.00;2.63;;;18.20;72.30;;;;;;9172067;19;20015;-62
2022/10/06 10:06:09;;;;;;;9.45;2.30;;;18.40;72.20;;;;;;9174009;19;20035;-66
2022/10/06 10:09:24;;;;;;;;;;;18.40;72.00;;;;;;9171167;19;20118;-62
2022/10/06 10:12:29;;;;;;;13.80;2.22;;;18.50;71.90;;;;;;9171805;19;19926;-66
2022/10/06 10:15:51;;;;;;;16.02;2.15;;;18.60;71.90;;;;;;9170722;19;20022;-67
2022/10/06 10:18:55;;;;;;;8.90;1.90;;;18.70;71.50;;;;;;9172720;19;21075;-67
2022/10/06 10:21:58;;;;;;;;;;;18.90;71.50;;;;;;9174361;19;20499;-69
2022/10/06 10:25:15;;;;;;;7.23;1.57;;;19.00;71.40;;;;;;9166644;19;19915;-69
2022/10/06 10:28:35;;;;;;;14.32;2.05;;;19.00;71.20;;;;;;9170601;19;20465;-69
2022/10/06 10:31:50;;;;;;;8.68;1.88;;;19.10;70.90;;;;;;9177135;19;20027;-66
2022/10/06 10:35:20;;;;;;;19.88;2.33;;;19.20;70.50;;;;;;9181411;19;20015;-61
2022/10/06 10:38:25;;;;;;;8.77;2.13;;;19.20;70.20;;;;;;9175929;19;20018;-61
2022/10/06 10:41:35;;;;;;;7.25;2.03;;;19.30;70.50;;;;;;9184098;19;20077;-63
2022/10/06 10:44:45;;;;;;;10.82;1.60;;;19.30;70.40;;;;;;9183126;19;20360;-63
2022/10/06 10:47:50;;;;;;;13.07;1.48;;;19.40;70.10;;;;;;9185433;19;20010;-60
2022/10/06 10:51:02;;;;;;;8.07;1.42;;;19.50;69.90;;;;;;9182867;19;20055;-62
2022/10/06 10:54:14;;;;;;;8.48;1.38;;;19.60;69.60;;;;;;9185347;19;20026;-61
2022/10/06 10:57:20;;;;;;;4.97;1.35;;;19.60;69.30;;;;;;9181354;19;20090;-62
2022/10/06 11:00:27;;;;;;;9.60;1.73;;;19.70;69.20;;;;;;9185041;19;20110;-62
2022/10/06 11:03:32;;;;;;;9.25;1.50;;;19.80;69.00;;;;;;9181834;19;20015;-62
2022/10/06 11:06:57;;;;;;;13.38;1.60;;;19.90;68.80;;;;;;9182957;19;20012;-64
2022/10/06 11:10:06;;;;;;;8.40;1.50;;;19.90;68.20;;;;;;9183211;19;20129;-62
2022/10/06 11:13:17;;;;;;;11.93;2.05;;;20.00;68.50;;;;;;9181018;19;21244;-61
2022/10/06 11:16:32;;;;;;;5.32;1.20;;;20.00;68.10;;;;;;9181561;19;20022;-61
2022/10/06 11:19:49;;;;;;;5.32;1.50;;;20.00;67.90;;;;;;9182562;19;20041;-62
2022/10/06 11:22:57;;;;;;;11.18;1.80;;;20.00;68.10;;;;;;9182195;19;20015;-61
2022/10/06 11:26:08;;;;;;;12.15;1.40;;;20.00;67.50;;;;;;9181321;19;20010;-63
2022/10/06 11:29:26;;;;;;;8.00;1.67;;;19.90;67.20;;;;;;9182071;19;20026;-64
2022/10/06 11:32:43;;;;;;;5.50;1.40;;;19.90;67.00;;;;;;9182062;19;20011;-62
2022/10/06 11:35:49;;;;;;;8.20;1.48;;;19.80;66.90;;;;;;9182117;19;20018;-64
2022/10/06 11:39:01;;;;;;;13.23;1.77;;;19.70;67.00;;;;;;9181534;19;20487;-64
2022/10/06 11:42:15;;;;;;;7.28;1.55;;;19.60;66.90;;;;;;9183708;19;20032;-64
2022/10/06 11:45:29;;;;;;;13.38;1.65;;;19.50;66.80;;;;;;9180343;19;20025;-65
2022/10/06 11:48:33;;;;;;;15.30;2.50;;;19.50;66.90;;;;;;9183662;19;20006;-63
2022/10/06 11:51:39;;;;;;;14.00;2.00;;;19.50;67.20;;;;;;9181790;19;20031;-63
2022/10/06 11:54:48;;;;;;;9.32;1.50;;;19.50;67.10;;;;;;9180081;19;20396;-61
2022/10/06 11:58:08;;;;;;;6.80;1.15;;;19.50;67.00;;;;;;9174177;19;20021;-60
2022/10/06 12:01:51;;;;;;;10.77;1.35;;;19.60;66.50;;;;;;9179826;19;20022;-61
2022/10/06 12:05:25;;;;;;;9.43;1.27;;;19.60;66.40;;;;;;9177885;19;20018;-64
2022/10/06 12:08:50;;;;;;;10.93;1.58;;;19.70;66.40;;;;;;9179128;19;20029;-62
2022/10/06 12:11:56;;;;;;;10.35;1.20;;;19.80;66.50;;;;;;9180225;19;20011;-60
2022/10/06 12:15:07;;;;;;;7.05;1.38;;;19.90;66.40;;;;;;9180974;19;20338;-61
2022/10/06 12:18:41;;;;;;;13.30;1.33;;;19.90;66.00;;;;;;9182035;19;20011;-62
2022/10/06 12:21:54;;;;;;;6.60;1.27;;;20.00;65.90;;;;;;9182989;19;20010;-63
2022/10/06 12:25:06;;;;;;;8.38;1.40;;;20.10;65.70;;;;;;9178773;19;20027;-62
2022/10/06 12:28:21;;;;;;;10.18;1.23;;;20.20;65.60;;;;;;9177219;19;20392;-61
2022/10/06 12:31:41;;;;;;;6.80;1.40;;;20.30;65.40;;;;;;9176362;19;20086;-62
2022/10/06 12:35:02;;;;;;;5.03;1.70;;;20.30;65.00;;;;;;9176929;19;20105;-61
2022/10/06 12:38:06;;;;;;;7.55;1.30;;;20.40;64.70;;;;;;9176346;19;20027;-61
2022/10/06 12:41:14;;;;;;;10.10;2.15;;;20.40;65.00;;;;;;9174584;19;20022;-63
2022/10/06 12:44:24;;;;;;;10.20;2.00;;;20.40;64.80;;;;;;9173497;19;20031;-62
2022/10/06 12:47:39;;;;;;;9.23;1.50;;;20.40;64.60;;;;;;9176960;19;20011;-64
2022/10/06 12:50:45;;;;;;;12.95;1.50;;;20.40;64.40;;;;;;9174538;19;20506;-61
2022/10/06 12:53:56;;;;;;;9.55;1.50;;;20.30;64.50;;;;;;9176605;19;20027;-62
2022/10/06 12:57:03;;;;;;;10.02;1.27;;;20.30;64.30;;;;;;9171822;19;20003;-62
2022/10/06 13:00:24;;;;;;;5.25;1.55;;;20.20;64.30;;;;;;9174353;19;20056;-64
2022/10/06 13:03:49;;;;;;;10.38;1.50;;;20.10;64.00;;;;;;9168951;19;20074;-66
2022/10/06 13:06:53;;;;;;;6.32;1.63;;;20.10;64.40;;;;;;9175995;19;20022;-63
2022/10/06 13:10:18;;;;;;;7.10;1.73;;;20.00;64.30;;;;;;9175974;19;20051;-63
2022/10/06 13:13:26;;;;;;;6.70;1.45;;;19.90;64.10;;;;;;9181481;19;20022;-63
2022/10/06 13:16:35;;;;;;;6.47;1.20;;;19.90;64.40;;;;;;9180704;19;20013;-62
2022/10/06 13:19:39;;;;;;;11.23;1.77;;;19.80;64.30;;;;;;9181011;19;20010;-62
2022/10/06 13:22:43;;;;;;;12.20;1.77;;;19.80;64.40;;;;;;9181321;19;20006;-63
2022/10/06 13:25:48;;;;;;;;;;;19.70;64.30;;;;;;9177737;19;20026;-62
2022/10/06 13:28:55;;;;;;;7.75;1.35;;;19.70;64.60;;;;;;9178351;19;19975;-61
2022/10/06 13:32:00;;;;;;;8.95;1.25;;;19.60;64.50;;;;;;9177494;19;20040;-64
2022/10/06 13:35:04;;;;;;;7.85;1.33;;;19.60;64.40;;;;;;9177754;19;20021;-61
2022/10/06 13:38:08;;;;;;;12.63;2.55;;;19.50;64.30;;;;;;9178153;19;20022;-62
2022/10/06 13:41:22;;;;;;;4.40;1.60;;;19.50;64.30;;;;;;9174515;19;20097;-63
2022/10/06 13:44:33;;;;;;;6.90;1.20;;;19.40;64.10;;;;;;9177607;19;20019;-62
2022/10/06 13:47:38;;;;;;;5.10;1.13;;;19.40;64.10;;;;;;9178387;19;20011;-63
2022/10/06 13:50:46;;;;;;;9.32;1.15;;;19.40;64.20;;;;;;9178553;19;20019;-61
2022/10/06 13:53:50;;;;;;;6.88;1.67;;;19.30;64.60;;;;;;9179194;19;20014;-61
2022/10/06 13:56:54;;;;;;;11.55;1.75;;;19.20;64.00;;;;;;9174355;19;20018;-61
2022/10/06 14:00:07;;;;;;;5.78;1.35;;;19.20;63.90;;;;;;9180247;19;20018;-62
2022/10/06 14:03:12;;;;;;;5.30;1.40;;;19.10;63.80;;;;;;9178142;19;20035;-61
2022/10/06 14:06:20;;;;;;;5.57;1.20;;;19.00;63.90;;;;;;9185727;19;20486;-63
2022/10/06 14:09:26;;;;;;;5.10;1.10;;;19.00;63.90;;;;;;9185742;19;20074;-61
2022/10/06 14:12:30;;;;;;;7.55;1.17;;;18.90;63.80;;;;;;9186541;19;20490;-64
2022/10/06 14:15:45;;;;;;;8.02;1.52;;;18.90;63.80;;;;;;9184673;19;20052;-64
2022/10/06 14:18:55;;;;;;;7.03;1.30;;;18.80;63.80;;;;;;9186621;19;20047;-63
2022/10/06 14:22:33;;;;;;;6.53;1.27;;;18.80;63.80;;;;;;9186990;19;20501;-61
2022/10/06 14:25:37;;;;;;;7.10;1.27;;;18.70;63.60;;;;;;9183269;19;20029;-63
2022/10/06 14:28:41;;;;;;;11.25;2.05;;;18.70;63.90;;;;;;9184068;19;20019;-63
2022/10/06 14:31:48;;;;;;;12.10;2.05;;;18.70;63.90;;;;;;9182218;19;20361;-62
2022/10/06 14:34:52;;;;;;;4.68;1.20;;;18.70;63.90;;;;;;9184583;19;20022;-64
2022/10/06 14:37:55;;;;;;;10.65;2.20;;;18.70;64.60;;;;;;9185698;19;20047;-61
2022/10/06 14:41:02;;;;;;;5.38;1.85;;;18.60;63.90;;;;;;9183228;19;20077;-62
2022/10/06 14:44:09;;;;;;;5.65;1.58;;;18.60;63.90;;;;;;9183837;19;20023;-64
2022/10/06 14:47:15;;;;;;;11.32;2.00;;;18.60;64.00;;;;;;9185702;19;20386;-63
2022/10/06 14:50:19;;;;;;;11.82;1.38;;;18.60;63.90;;;;;;9185736;19;20570;-63
2022/10/06 14:53:22;;;;;;;7.65;1.65;;;18.60;64.10;;;;;;9185542;19;20078;-61
2022/10/06 14:56:28;;;;;;;8.45;1.10;;;18.60;64.00;;;;;;9182012;19;20070;-63
2022/10/06 14:59:32;;;;;;;8.68;1.50;;;18.60;63.90;;;;;;9185472;19;20018;-62
2022/10/06 15:02:38;;;;;;;7.82;1.90;;;18.60;63.90;;;;;;9185754;19;20102;-63
2022/10/06 15:08:08;;;;;;;11.10;1.60;;;18.50;63.80;;;;;;9182711;19;20014;-61
2022/10/06 15:09:04;;;;;;;7.47;1.40;;;18.50;63.80;;;;;;9182806;19;20109;-66
2022/10/06 15:12:07;;;;;;;6.53;1.38;;;18.50;63.90;;;;;;9177315;19;20018;-61
2022/10/06 15:15:11;;;;;;;5.00;1.30;;;18.50;63.90;;;;;;9177410;19;20642;-65
2022/10/06 15:18:17;;;;;;;15.70;1.73;;;18.40;63.80;;;;;;9176083;19;20483;-62
2022/10/06 15:21:22;;;;;;;9.38;1.65;;;18.40;63.80;;;;;;9173752;19;20022;-65
2022/10/06 15:24:26;;;;;;;9.70;1.75;;;18.40;64.00;;;;;;9175177;19;20074;-64
2022/10/06 15:30:46;;;;;;;7.90;1.40;;;18.30;64.00;;;;;;9176089;19;20027;-61
2022/10/06 15:33:53;;;;;;;7.13;1.40;;;18.20;64.00;;;;;;9173529;19;20014;-66
2022/10/06 15:36:58;;;;;;;9.30;1.20;;;18.20;64.00;;;;;;9175532;19;20086;-61
2022/10/06 15:40:04;;;;;;;15.95;2.47;;;18.10;64.00;;;;;;9171500;19;20236;-64
2022/10/06 15:43:08;;;;;;;9.18;1.30;;;18.10;64.00;;;;;;9173489;19;20457;-60
2022/10/06 15:46:11;;;;;;;8.88;2.25;;;18.10;64.10;;;;;;9170877;19;20018;-64
2022/10/06 15:49:18;;;;;;;;;;;18.00;64.10;;;;;;9172535;19;20142;-64
2022/10/06 15:52:22;;;;;;;11.75;1.58;;;18.00;64.10;;;;;;9170027;19;19926;-65
2022/10/06 15:55:26;;;;;;;11.80;1.50;;;17.90;64.20;;;;;;9169836;19;20759;-64
2022/10/06 15:58:29;;;;;;;7.32;1.25;;;17.80;64.20;;;;;;9163813;19;20029;-67
2022/10/06 16:01:42;;;;;;;7.90;1.90;;;17.80;64.20;;;;;;9170023;19;20094;-64
2022/10/06 16:05:28;;;;;;;12.02;1.30;;;17.70;64.10;;;;;;9167380;19;20011;-64
2022/10/06 16:08:19;;;;;;;8.50;2.03;;;17.60;64.00;;;;;;9174408;19;20051;-65
2022/10/06 16:11:23;;;;;;;6.95;1.05;;;17.60;64.10;;;;;;9176211;19;20021;-66
2022/10/06 16:14:27;;;;;;;8.13;1.20;;;17.60;64.10;;;;;;9179398;19;20022;-62
2022/10/06 16:17:31;;;;;;;6.38;1.25;;;17.50;64.10;;;;;;9181086;19;20023;-62
2022/10/06 16:20:37;;;;;;;6.90;1.15;;;17.40;64.10;;;;;;9181650;19;20014;-63
2022/10/06 16:23:40;;;;;;;7.20;1.15;;;17.40;64.10;;;;;;9180017;19;20439;-63
2022/10/06 16:26:44;;;;;;;11.35;1.33;;;17.30;64.10;;;;;;9173233;19;20098;-64
2022/10/06 16:29:48;;;;;;;11.52;2.58;;;17.30;64.10;;;;;;9176339;19;20052;-62
2022/10/06 16:32:52;;;;;;;6.25;1.40;;;17.20;64.10;;;;;;9175295;19;20015;-63
2022/10/06 16:35:58;;;;;;;4.07;1.10;;;17.10;64.10;;;;;;9174231;19;20074;-62